sensor_id;sensor_type;location;lat;lon;timestamp;temperature;humidity
42683;DHT22;28293;50.930;3.464;2023-06-05T00:01:20;14.00;83.50
42683;DHT22;28293;50.930;3.464;2023-06-05T00:03:46;14.00;83.40
42683;DHT22;28293;50.930;3.464;2023-06-05T00:06:11;14.00;83.40
42683;DHT22;28293;50.930;3.464;2023-06-05T00:08:37;14.00;83.30
42683;DHT22;28293;50.930;3.464;2023-06-05T00:11:03;13.90;83.50
42683;DHT22;28293;50.930;3.464;2023-06-05T00:13:29;13.90;83.50
42683;DHT22;28293;50.930;3.464;2023-06-05T00:15:54;13.90;83.50
42683;DHT22;28293;50.930;3.464;2023-06-05T00:18:21;13.90;83.40
42683;DHT22;28293;50.930;3.464;2023-06-05T00:20:47;13.80;83.40
42683;DHT22;28293;50.930;3.464;2023-06-05T00:23:13;13.80;83.40
42683;DHT22;28293;50.930;3.464;2023-06-05T00:25:39;13.80;83.50
42683;DHT22;28293;50.930;3.464;2023-06-05T00:28:05;13.70;83.50
42683;DHT22;28293;50.930;3.464;2023-06-05T00:30:30;13.70;83.50
42683;DHT22;28293;50.930;3.464;2023-06-05T00:32:56;13.70;83.40
42683;DHT22;28293;50.930;3.464;2023-06-05T00:35:22;13.60;83.30
42683;DHT22;28293;50.930;3.464;2023-06-05T00:37:48;13.60;83.30
42683;DHT22;28293;50.930;3.464;2023-06-05T00:40:14;13.60;83.30
42683;DHT22;28293;50.930;3.464;2023-06-05T00:42:40;13.60;83.20
42683;DHT22;28293;50.930;3.464;2023-06-05T00:45:06;13.60;83.20
42683;DHT22;28293;50.930;3.464;2023-06-05T00:47:32;13.60;83.10
42683;DHT22;28293;50.930;3.464;2023-06-05T00:49:59;13.60;83.20
42683;DHT22;28293;50.930;3.464;2023-06-05T00:52:27;13.60;83.30
42683;DHT22;28293;50.930;3.464;2023-06-05T00:54:53;13.50;83.40
42683;DHT22;28293;50.930;3.464;2023-06-05T00:57:19;13.50;83.40
42683;DHT22;28293;50.930;3.464;2023-06-05T00:59:46;13.50;83.40
42683;DHT22;28293;50.930;3.464;2023-06-05T01:02:12;13.40;83.60
42683;DHT22;28293;50.930;3.464;2023-06-05T01:04:41;13.40;83.40
42683;DHT22;28293;50.930;3.464;2023-06-05T01:07:10;13.40;83.60
42683;DHT22;28293;50.930;3.464;2023-06-05T01:09:37;13.30;83.70
42683;DHT22;28293;50.930;3.464;2023-06-05T01:12:17;13.30;83.70
42683;DHT22;28293;50.930;3.464;2023-06-05T01:14:48;13.30;83.60
42683;DHT22;28293;50.930;3.464;2023-06-05T01:17:16;13.20;83.60
42683;DHT22;28293;50.930;3.464;2023-06-05T01:19:46;13.20;83.70
42683;DHT22;28293;50.930;3.464;2023-06-05T01:22:11;13.20;83.60
42683;DHT22;28293;50.930;3.464;2023-06-05T01:24:41;13.20;83.60
42683;DHT22;28293;50.930;3.464;2023-06-05T01:28:37;13.10;83.60
42683;DHT22;28293;50.930;3.464;2023-06-05T01:30:40;13.10;83.70
42683;DHT22;28293;50.930;3.464;2023-06-05T01:33:19;13.10;83.60
42683;DHT22;28293;50.930;3.464;2023-06-05T01:35:50;13.10;83.60
42683;DHT22;28293;50.930;3.464;2023-06-05T01:38:19;13.10;83.70
42683;DHT22;28293;50.930;3.464;2023-06-05T01:40:47;13.00;83.70
42683;DHT22;28293;50.930;3.464;2023-06-05T01:43:13;13.00;83.60
42683;DHT22;28293;50.930;3.464;2023-06-05T01:45:39;12.90;83.80
42683;DHT22;28293;50.930;3.464;2023-06-05T01:48:08;12.90;83.90
42683;DHT22;28293;50.930;3.464;2023-06-05T01:50:38;12.90;84.00
42683;DHT22;28293;50.930;3.464;2023-06-05T01:53:04;12.90;84.00
42683;DHT22;28293;50.930;3.464;2023-06-05T01:55:31;12.90;84.00
42683;DHT22;28293;50.930;3.464;2023-06-05T01:57:57;12.80;84.10
42683;DHT22;28293;50.930;3.464;2023-06-05T02:00:23;12.80;84.20
42683;DHT22;28293;50.930;3.464;2023-06-05T02:02:50;12.80;84.40
42683;DHT22;28293;50.930;3.464;2023-06-05T02:05:17;12.70;84.30
42683;DHT22;28293;50.930;3.464;2023-06-05T02:07:46;12.70;84.60
42683;DHT22;28293;50.930;3.464;2023-06-05T02:10:19;12.70;84.70
42683;DHT22;28293;50.930;3.464;2023-06-05T02:12:45;12.70;84.80
42683;DHT22;28293;50.930;3.464;2023-06-05T02:15:11;12.60;84.80
42683;DHT22;28293;50.930;3.464;2023-06-05T02:17:39;12.60;85.00
42683;DHT22;28293;50.930;3.464;2023-06-05T02:20:14;12.60;85.10
42683;DHT22;28293;50.930;3.464;2023-06-05T02:22:43;12.60;85.00
42683;DHT22;28293;50.930;3.464;2023-06-05T02:25:10;12.60;85.20
42683;DHT22;28293;50.930;3.464;2023-06-05T02:27:39;12.60;85.30
42683;DHT22;28293;50.930;3.464;2023-06-05T02:30:05;12.50;85.30
42683;DHT22;28293;50.930;3.464;2023-06-05T02:32:32;12.50;85.60
42683;DHT22;28293;50.930;3.464;2023-06-05T02:34:58;12.50;85.60
42683;DHT22;28293;50.930;3.464;2023-06-05T02:37:25;12.50;85.70
42683;DHT22;28293;50.930;3.464;2023-06-05T02:39:52;12.50;85.70
42683;DHT22;28293;50.930;3.464;2023-06-05T02:42:18;12.40;85.90
42683;DHT22;28293;50.930;3.464;2023-06-05T02:44:45;12.40;85.80
42683;DHT22;28293;50.930;3.464;2023-06-05T02:47:12;12.50;85.80
42683;DHT22;28293;50.930;3.464;2023-06-05T02:49:38;12.40;85.90
42683;DHT22;28293;50.930;3.464;2023-06-05T02:52:04;12.40;86.00
42683;DHT22;28293;50.930;3.464;2023-06-05T02:54:30;12.40;86.00
42683;DHT22;28293;50.930;3.464;2023-06-05T02:56:56;12.40;86.20
42683;DHT22;28293;50.930;3.464;2023-06-05T02:59:25;12.40;86.20
42683;DHT22;28293;50.930;3.464;2023-06-05T03:01:53;12.30;86.50
42683;DHT22;28293;50.930;3.464;2023-06-05T03:04:19;12.30;86.60
42683;DHT22;28293;50.930;3.464;2023-06-05T03:06:50;12.20;86.80
42683;DHT22;28293;50.930;3.464;2023-06-05T03:09:18;12.20;86.90
42683;DHT22;28293;50.930;3.464;2023-06-05T03:11:44;12.20;86.90
42683;DHT22;28293;50.930;3.464;2023-06-05T03:14:10;12.20;87.20
42683;DHT22;28293;50.930;3.464;2023-06-05T03:16:36;12.20;87.00
42683;DHT22;28293;50.930;3.464;2023-06-05T03:19:09;12.20;87.00
42683;DHT22;28293;50.930;3.464;2023-06-05T03:21:36;12.20;87.20
42683;DHT22;28293;50.930;3.464;2023-06-05T03:24:04;12.20;87.20
42683;DHT22;28293;50.930;3.464;2023-06-05T03:26:31;12.20;87.30
42683;DHT22;28293;50.930;3.464;2023-06-05T03:28:58;12.20;87.30
42683;DHT22;28293;50.930;3.464;2023-06-05T03:31:24;12.20;87.50
42683;DHT22;28293;50.930;3.464;2023-06-05T03:33:49;12.10;87.40
42683;DHT22;28293;50.930;3.464;2023-06-05T03:36:16;12.10;87.50
42683;DHT22;28293;50.930;3.464;2023-06-05T03:38:43;12.10;87.70
42683;DHT22;28293;50.930;3.464;2023-06-05T03:41:09;12.10;87.80
42683;DHT22;28293;50.930;3.464;2023-06-05T03:43:35;12.10;88.00
42683;DHT22;28293;50.930;3.464;2023-06-05T03:46:02;12.10;88.00
42683;DHT22;28293;50.930;3.464;2023-06-05T03:48:27;12.10;88.00
42683;DHT22;28293;50.930;3.464;2023-06-05T03:50:53;12.00;87.90
42683;DHT22;28293;50.930;3.464;2023-06-05T03:53:21;12.10;88.10
42683;DHT22;28293;50.930;3.464;2023-06-05T03:55:48;12.10;88.00
42683;DHT22;28293;50.930;3.464;2023-06-05T03:58:16;12.10;87.90
42683;DHT22;28293;50.930;3.464;2023-06-05T04:00:42;12.20;87.80
42683;DHT22;28293;50.930;3.464;2023-06-05T04:03:09;12.20;87.70
42683;DHT22;28293;50.930;3.464;2023-06-05T04:05:36;12.20;87.90
42683;DHT22;28293;50.930;3.464;2023-06-05T04:08:02;12.20;87.70
42683;DHT22;28293;50.930;3.464;2023-06-05T04:10:29;12.20;87.70
42683;DHT22;28293;50.930;3.464;2023-06-05T04:12:55;12.30;87.70
42683;DHT22;28293;50.930;3.464;2023-06-05T04:15:22;12.30;87.60
42683;DHT22;28293;50.930;3.464;2023-06-05T04:17:48;12.30;87.60
42683;DHT22;28293;50.930;3.464;2023-06-05T04:20:14;12.30;87.50
42683;DHT22;28293;50.930;3.464;2023-06-05T04:22:41;12.30;87.70
42683;DHT22;28293;50.930;3.464;2023-06-05T04:25:07;12.30;87.60
42683;DHT22;28293;50.930;3.464;2023-06-05T04:27:33;12.30;87.60
42683;DHT22;28293;50.930;3.464;2023-06-05T04:29:59;12.40;87.40
42683;DHT22;28293;50.930;3.464;2023-06-05T04:32:24;12.40;87.50
42683;DHT22;28293;50.930;3.464;2023-06-05T04:34:51;12.40;87.30
42683;DHT22;28293;50.930;3.464;2023-06-05T04:37:17;12.40;87.40
42683;DHT22;28293;50.930;3.464;2023-06-05T04:39:43;12.40;87.40
42683;DHT22;28293;50.930;3.464;2023-06-05T04:42:09;12.60;87.40
42683;DHT22;28293;50.930;3.464;2023-06-05T04:44:34;12.60;87.30
42683;DHT22;28293;50.930;3.464;2023-06-05T04:47:00;12.60;87.10
42683;DHT22;28293;50.930;3.464;2023-06-05T04:49:26;12.60;87.00
42683;DHT22;28293;50.930;3.464;2023-06-05T04:51:54;12.60;86.70
42683;DHT22;28293;50.930;3.464;2023-06-05T04:54:22;12.70;86.60
42683;DHT22;28293;50.930;3.464;2023-06-05T04:56:48;12.60;86.70
42683;DHT22;28293;50.930;3.464;2023-06-05T04:59:15;12.60;86.60
42683;DHT22;28293;50.930;3.464;2023-06-05T05:01:40;12.60;86.50
42683;DHT22;28293;50.930;3.464;2023-06-05T05:04:06;12.70;86.60
42683;DHT22;28293;50.930;3.464;2023-06-05T05:06:32;12.80;86.10
42683;DHT22;28293;50.930;3.464;2023-06-05T05:08:59;12.80;85.70
42683;DHT22;28293;50.930;3.464;2023-06-05T05:11:25;13.20;85.40
42683;DHT22;28293;50.930;3.464;2023-06-05T05:13:51;14.00;83.50
42683;DHT22;28293;50.930;3.464;2023-06-05T05:16:17;14.90;81.00
42683;DHT22;28293;50.930;3.464;2023-06-05T05:18:44;15.60;76.30
42683;DHT22;28293;50.930;3.464;2023-06-05T05:21:10;16.10;74.50
42683;DHT22;28293;50.930;3.464;2023-06-05T05:23:35;16.40;72.50
42683;DHT22;28293;50.930;3.464;2023-06-05T05:26:02;17.00;71.20
42683;DHT22;28293;50.930;3.464;2023-06-05T05:28:28;16.80;70.70
42683;DHT22;28293;50.930;3.464;2023-06-05T05:30:54;16.80;71.50
42683;DHT22;28293;50.930;3.464;2023-06-05T05:33:22;17.10;69.40
42683;DHT22;28293;50.930;3.464;2023-06-05T05:35:47;17.30;68.00
42683;DHT22;28293;50.930;3.464;2023-06-05T05:38:14;17.00;69.40
42683;DHT22;28293;50.930;3.464;2023-06-05T05:40:39;16.60;70.90
42683;DHT22;28293;50.930;3.464;2023-06-05T05:43:05;16.90;70.30
42683;DHT22;28293;50.930;3.464;2023-06-05T05:45:31;17.10;68.70
42683;DHT22;28293;50.930;3.464;2023-06-05T05:47:57;16.90;69.40
42683;DHT22;28293;50.930;3.464;2023-06-05T05:50:22;17.00;69.20
42683;DHT22;28293;50.930;3.464;2023-06-05T05:52:48;16.70;69.70
42683;DHT22;28293;50.930;3.464;2023-06-05T05:55:16;16.30;71.00
42683;DHT22;28293;50.930;3.464;2023-06-05T05:57:41;15.40;74.10
42683;DHT22;28293;50.930;3.464;2023-06-05T06:00:07;15.00;76.10
42683;DHT22;28293;50.930;3.464;2023-06-05T06:02:38;14.80;76.60
42683;DHT22;28293;50.930;3.464;2023-06-05T06:05:04;14.70;76.30
42683;DHT22;28293;50.930;3.464;2023-06-05T06:07:30;14.70;77.60
42683;DHT22;28293;50.930;3.464;2023-06-05T06:09:57;14.80;77.00
42683;DHT22;28293;50.930;3.464;2023-06-05T06:12:24;14.90;76.90
42683;DHT22;28293;50.930;3.464;2023-06-05T06:14:50;14.90;75.90
42683;DHT22;28293;50.930;3.464;2023-06-05T06:17:16;14.80;76.60
42683;DHT22;28293;50.930;3.464;2023-06-05T06:19:42;15.00;76.00
42683;DHT22;28293;50.930;3.464;2023-06-05T06:22:08;14.80;75.70
42683;DHT22;28293;50.930;3.464;2023-06-05T06:24:41;14.90;76.50
42683;DHT22;28293;50.930;3.464;2023-06-05T06:27:08;15.00;75.70
42683;DHT22;28293;50.930;3.464;2023-06-05T06:29:34;15.00;75.50
42683;DHT22;28293;50.930;3.464;2023-06-05T06:32:00;14.90;75.80
42683;DHT22;28293;50.930;3.464;2023-06-05T06:34:26;15.20;75.80
42683;DHT22;28293;50.930;3.464;2023-06-05T06:36:52;15.10;74.90
42683;DHT22;28293;50.930;3.464;2023-06-05T06:39:18;15.10;75.00
42683;DHT22;28293;50.930;3.464;2023-06-05T06:41:43;15.10;75.30
42683;DHT22;28293;50.930;3.464;2023-06-05T06:44:10;15.50;74.60
42683;DHT22;28293;50.930;3.464;2023-06-05T06:46:36;15.50;73.70
42683;DHT22;28293;50.930;3.464;2023-06-05T06:49:02;15.60;73.60
42683;DHT22;28293;50.930;3.464;2023-06-05T06:51:28;15.80;73.40
42683;DHT22;28293;50.930;3.464;2023-06-05T06:53:54;16.10;72.60
42683;DHT22;28293;50.930;3.464;2023-06-05T06:56:20;16.20;71.20
42683;DHT22;28293;50.930;3.464;2023-06-05T06:58:45;16.10;71.40
42683;DHT22;28293;50.930;3.464;2023-06-05T07:01:11;16.10;71.90
42683;DHT22;28293;50.930;3.464;2023-06-05T07:03:38;16.10;71.30
42683;DHT22;28293;50.930;3.464;2023-06-05T07:06:06;16.30;71.20
42683;DHT22;28293;50.930;3.464;2023-06-05T07:08:33;16.40;70.60
42683;DHT22;28293;50.930;3.464;2023-06-05T07:10:58;16.20;69.80
42683;DHT22;28293;50.930;3.464;2023-06-05T07:13:24;16.30;70.30
42683;DHT22;28293;50.930;3.464;2023-06-05T07:15:51;16.30;70.60
42683;DHT22;28293;50.930;3.464;2023-06-05T07:18:18;16.50;69.60
42683;DHT22;28293;50.930;3.464;2023-06-05T07:20:45;16.20;69.80
42683;DHT22;28293;50.930;3.464;2023-06-05T07:23:10;16.50;69.60
42683;DHT22;28293;50.930;3.464;2023-06-05T07:25:36;16.60;68.70
42683;DHT22;28293;50.930;3.464;2023-06-05T07:28:08;16.70;69.00
42683;DHT22;28293;50.930;3.464;2023-06-05T07:30:33;16.70;68.40
42683;DHT22;28293;50.930;3.464;2023-06-05T07:33:00;16.60;68.40
42683;DHT22;28293;50.930;3.464;2023-06-05T07:35:25;16.70;67.70
42683;DHT22;28293;50.930;3.464;2023-06-05T07:37:51;16.80;68.20
42683;DHT22;28293;50.930;3.464;2023-06-05T07:40:18;16.60;68.70
42683;DHT22;28293;50.930;3.464;2023-06-05T07:42:45;16.70;68.30
42683;DHT22;28293;50.930;3.464;2023-06-05T07:45:10;17.00;68.70
42683;DHT22;28293;50.930;3.464;2023-06-05T07:47:36;17.10;67.30
42683;DHT22;28293;50.930;3.464;2023-06-05T07:50:02;17.20;66.40
42683;DHT22;28293;50.930;3.464;2023-06-05T07:52:32;17.30;66.70
42683;DHT22;28293;50.930;3.464;2023-06-05T07:54:58;17.30;67.00
42683;DHT22;28293;50.930;3.464;2023-06-05T07:57:24;17.40;67.30
42683;DHT22;28293;50.930;3.464;2023-06-05T07:59:50;17.70;67.10
42683;DHT22;28293;50.930;3.464;2023-06-05T08:02:19;18.00;65.60
42683;DHT22;28293;50.930;3.464;2023-06-05T08:04:45;17.80;66.60
42683;DHT22;28293;50.930;3.464;2023-06-05T08:07:11;18.00;66.40
42683;DHT22;28293;50.930;3.464;2023-06-05T08:09:37;18.30;65.70
42683;DHT22;28293;50.930;3.464;2023-06-05T08:12:04;18.30;64.60
42683;DHT22;28293;50.930;3.464;2023-06-05T08:14:31;18.30;64.50
42683;DHT22;28293;50.930;3.464;2023-06-05T08:16:57;18.20;64.70
42683;DHT22;28293;50.930;3.464;2023-06-05T08:19:23;18.30;64.70
42683;DHT22;28293;50.930;3.464;2023-06-05T08:21:52;18.30;63.60
42683;DHT22;28293;50.930;3.464;2023-06-05T08:24:20;18.20;64.80
42683;DHT22;28293;50.930;3.464;2023-06-05T08:26:45;18.30;65.00
42683;DHT22;28293;50.930;3.464;2023-06-05T08:29:11;18.60;64.40
42683;DHT22;28293;50.930;3.464;2023-06-05T08:31:37;18.70;62.70
42683;DHT22;28293;50.930;3.464;2023-06-05T08:34:04;18.70;62.10
42683;DHT22;28293;50.930;3.464;2023-06-05T08:36:30;18.70;63.00
42683;DHT22;28293;50.930;3.464;2023-06-05T08:39:01;18.60;62.20
42683;DHT22;28293;50.930;3.464;2023-06-05T08:41:29;18.60;62.60
42683;DHT22;28293;50.930;3.464;2023-06-05T08:43:56;18.90;62.30
42683;DHT22;28293;50.930;3.464;2023-06-05T08:46:22;19.10;61.70
42683;DHT22;28293;50.930;3.464;2023-06-05T08:48:48;19.20;62.20
42683;DHT22;28293;50.930;3.464;2023-06-05T08:51:20;19.30;60.20
42683;DHT22;28293;50.930;3.464;2023-06-05T08:53:57;19.30;60.70
42683;DHT22;28293;50.930;3.464;2023-06-05T08:56:27;19.20;60.50
42683;DHT22;28293;50.930;3.464;2023-06-05T08:58:53;19.20;60.40
42683;DHT22;28293;50.930;3.464;2023-06-05T09:01:19;19.50;60.30
42683;DHT22;28293;50.930;3.464;2023-06-05T09:03:45;19.60;60.60
42683;DHT22;28293;50.930;3.464;2023-06-05T09:06:11;19.50;59.70
42683;DHT22;28293;50.930;3.464;2023-06-05T09:08:37;19.50;58.90
42683;DHT22;28293;50.930;3.464;2023-06-05T09:11:39;19.40;60.50
42683;DHT22;28293;50.930;3.464;2023-06-05T09:14:05;19.80;59.10
42683;DHT22;28293;50.930;3.464;2023-06-05T09:16:37;19.70;59.20
42683;DHT22;28293;50.930;3.464;2023-06-05T09:19:04;19.80;59.50
42683;DHT22;28293;50.930;3.464;2023-06-05T09:21:30;20.00;58.10
42683;DHT22;28293;50.930;3.464;2023-06-05T09:24:15;19.90;59.30
42683;DHT22;28293;50.930;3.464;2023-06-05T09:26:57;20.30;57.30
42683;DHT22;28293;50.930;3.464;2023-06-05T09:31:59;20.10;58.90
42683;DHT22;28293;50.930;3.464;2023-06-05T09:34:27;20.60;57.90
42683;DHT22;28293;50.930;3.464;2023-06-05T09:36:54;20.40;58.20
42683;DHT22;28293;50.930;3.464;2023-06-05T09:39:21;20.50;56.80
42683;DHT22;28293;50.930;3.464;2023-06-05T09:41:48;20.40;56.60
42683;DHT22;28293;50.930;3.464;2023-06-05T09:44:15;20.10;56.40
42683;DHT22;28293;50.930;3.464;2023-06-05T09:49:18;20.30;56.30
42683;DHT22;28293;50.930;3.464;2023-06-05T09:51:44;20.40;57.30
42683;DHT22;28293;50.930;3.464;2023-06-05T09:54:11;20.70;56.10
42683;DHT22;28293;50.930;3.464;2023-06-05T09:56:39;20.60;55.60
42683;DHT22;28293;50.930;3.464;2023-06-05T09:59:07;20.50;56.50
42683;DHT22;28293;50.930;3.464;2023-06-05T10:01:35;20.50;56.90
42683;DHT22;28293;50.930;3.464;2023-06-05T10:04:06;20.40;56.50
42683;DHT22;28293;50.930;3.464;2023-06-05T10:06:33;20.50;56.50
42683;DHT22;28293;50.930;3.464;2023-06-05T10:08:59;20.60;56.50
42683;DHT22;28293;50.930;3.464;2023-06-05T10:11:26;20.70;55.80
42683;DHT22;28293;50.930;3.464;2023-06-05T10:13:53;20.90;55.50
42683;DHT22;28293;50.930;3.464;2023-06-05T10:16:20;20.90;54.80
42683;DHT22;28293;50.930;3.464;2023-06-05T10:18:47;21.00;54.30
42683;DHT22;28293;50.930;3.464;2023-06-05T10:21:17;20.50;54.90
42683;DHT22;28293;50.930;3.464;2023-06-05T10:23:47;20.60;55.70
42683;DHT22;28293;50.930;3.464;2023-06-05T10:26:37;20.70;55.30
42683;DHT22;28293;50.930;3.464;2023-06-05T10:40:25;20.90;53.50
42683;DHT22;28293;50.930;3.464;2023-06-05T10:42:51;21.20;53.30
42683;DHT22;28293;50.930;3.464;2023-06-05T10:45:32;21.50;53.00
42683;DHT22;28293;50.930;3.464;2023-06-05T10:47:58;21.60;52.90
42683;DHT22;28293;50.930;3.464;2023-06-05T10:50:24;21.30;53.20
42683;DHT22;28293;50.930;3.464;2023-06-05T10:52:53;21.60;53.20
42683;DHT22;28293;50.930;3.464;2023-06-05T10:55:20;21.80;53.90
42683;DHT22;28293;50.930;3.464;2023-06-05T11:00:28;22.60;50.80
42683;DHT22;28293;50.930;3.464;2023-06-05T11:02:54;22.40;51.50
42683;DHT22;28293;50.930;3.464;2023-06-05T11:05:20;22.40;52.20
42683;DHT22;28293;50.930;3.464;2023-06-05T11:07:46;22.70;52.90
42683;DHT22;28293;50.930;3.464;2023-06-05T11:10:13;22.70;49.60
42683;DHT22;28293;50.930;3.464;2023-06-05T11:17:53;22.20;52.70
42683;DHT22;28293;50.930;3.464;2023-06-05T11:27:58;22.50;52.80
42683;DHT22;28293;50.930;3.464;2023-06-05T11:30:28;22.90;51.70
42683;DHT22;28293;50.930;3.464;2023-06-05T11:33:05;22.70;51.40
42683;DHT22;28293;50.930;3.464;2023-06-05T11:35:31;22.70;51.70
42683;DHT22;28293;50.930;3.464;2023-06-05T11:38:14;22.40;51.90
42683;DHT22;28293;50.930;3.464;2023-06-05T11:40:41;22.20;52.50
42683;DHT22;28293;50.930;3.464;2023-06-05T11:43:12;22.50;52.90
42683;DHT22;28293;50.930;3.464;2023-06-05T11:45:39;22.60;53.00
42683;DHT22;28293;50.930;3.464;2023-06-05T11:50:32;22.30;52.90
42683;DHT22;28293;50.930;3.464;2023-06-05T11:53:07;22.90;52.50
42683;DHT22;28293;50.930;3.464;2023-06-05T11:55:33;23.10;51.80
42683;DHT22;28293;50.930;3.464;2023-06-05T11:58:29;23.20;51.10
42683;DHT22;28293;50.930;3.464;2023-06-05T12:01:15;23.10;51.40
42683;DHT22;28293;50.930;3.464;2023-06-05T12:03:48;23.40;50.70
42683;DHT22;28293;50.930;3.464;2023-06-05T12:06:15;23.20;51.70
42683;DHT22;28293;50.930;3.464;2023-06-05T12:08:42;23.30;50.00
42683;DHT22;28293;50.930;3.464;2023-06-05T12:11:27;23.00;50.50
42683;DHT22;28293;50.930;3.464;2023-06-05T12:13:54;23.20;51.80
42683;DHT22;28293;50.930;3.464;2023-06-05T12:16:32;23.00;51.30
42683;DHT22;28293;50.930;3.464;2023-06-05T12:18:59;22.90;51.20
42683;DHT22;28293;50.930;3.464;2023-06-05T12:21:27;22.70;51.70
42683;DHT22;28293;50.930;3.464;2023-06-05T12:24:01;22.90;51.70
42683;DHT22;28293;50.930;3.464;2023-06-05T12:26:27;23.00;52.60
42683;DHT22;28293;50.930;3.464;2023-06-05T12:29:07;23.50;52.00
42683;DHT22;28293;50.930;3.464;2023-06-05T12:31:36;23.50;51.20
42683;DHT22;28293;50.930;3.464;2023-06-05T12:34:05;23.60;51.50
42683;DHT22;28293;50.930;3.464;2023-06-05T12:36:37;23.50;50.10
42683;DHT22;28293;50.930;3.464;2023-06-05T12:39:03;23.30;50.20
42683;DHT22;28293;50.930;3.464;2023-06-05T12:41:32;23.20;50.30
42683;DHT22;28293;50.930;3.464;2023-06-05T12:44:00;23.50;50.30
42683;DHT22;28293;50.930;3.464;2023-06-05T12:46:26;23.40;51.00
42683;DHT22;28293;50.930;3.464;2023-06-05T12:48:53;23.50;50.20
42683;DHT22;28293;50.930;3.464;2023-06-05T12:51:19;23.30;50.80
42683;DHT22;28293;50.930;3.464;2023-06-05T12:53:46;23.30;49.90
42683;DHT22;28293;50.930;3.464;2023-06-05T12:56:11;23.40;49.80
42683;DHT22;28293;50.930;3.464;2023-06-05T12:58:37;23.40;50.50
42683;DHT22;28293;50.930;3.464;2023-06-05T13:01:03;23.60;49.70
42683;DHT22;28293;50.930;3.464;2023-06-05T13:03:29;23.40;49.80
42683;DHT22;28293;50.930;3.464;2023-06-05T13:05:54;23.50;50.40
42683;DHT22;28293;50.930;3.464;2023-06-05T13:08:20;23.40;49.70
42683;DHT22;28293;50.930;3.464;2023-06-05T13:10:46;23.70;49.50
42683;DHT22;28293;50.930;3.464;2023-06-05T13:13:11;23.90;48.80
42683;DHT22;28293;50.930;3.464;2023-06-05T13:15:37;23.90;47.90
42683;DHT22;28293;50.930;3.464;2023-06-05T13:18:03;23.60;48.30
42683;DHT22;28293;50.930;3.464;2023-06-05T13:20:28;23.30;49.10
42683;DHT22;28293;50.930;3.464;2023-06-05T13:22:54;23.50;49.50
42683;DHT22;28293;50.930;3.464;2023-06-05T13:25:20;23.70;50.20
42683;DHT22;28293;50.930;3.464;2023-06-05T13:27:46;23.80;50.40
42683;DHT22;28293;50.930;3.464;2023-06-05T13:30:11;23.80;50.70
42683;DHT22;28293;50.930;3.464;2023-06-05T13:32:37;23.90;50.80
42683;DHT22;28293;50.930;3.464;2023-06-05T13:35:07;23.80;51.10
42683;DHT22;28293;50.930;3.464;2023-06-05T13:37:33;23.70;51.10
42683;DHT22;28293;50.930;3.464;2023-06-05T13:39:59;23.30;51.90
42683;DHT22;28293;50.930;3.464;2023-06-05T13:42:24;23.20;52.10
42683;DHT22;28293;50.930;3.464;2023-06-05T13:44:50;23.10;53.40
42683;DHT22;28293;50.930;3.464;2023-06-05T13:47:16;23.10;53.70
42683;DHT22;28293;50.930;3.464;2023-06-05T13:49:41;23.30;52.90
42683;DHT22;28293;50.930;3.464;2023-06-05T13:52:07;23.20;52.60
42683;DHT22;28293;50.930;3.464;2023-06-05T13:54:33;23.40;52.60
42683;DHT22;28293;50.930;3.464;2023-06-05T13:56:58;23.40;52.20
42683;DHT22;28293;50.930;3.464;2023-06-05T13:59:25;23.40;52.00
42683;DHT22;28293;50.930;3.464;2023-06-05T14:01:50;23.10;53.00
42683;DHT22;28293;50.930;3.464;2023-06-05T14:04:16;22.90;53.20
42683;DHT22;28293;50.930;3.464;2023-06-05T14:06:42;22.90;52.70
42683;DHT22;28293;50.930;3.464;2023-06-05T14:09:08;22.70;53.50
42683;DHT22;28293;50.930;3.464;2023-06-05T14:11:34;22.90;53.40
42683;DHT22;28293;50.930;3.464;2023-06-05T14:14:00;22.60;53.70
42683;DHT22;28293;50.930;3.464;2023-06-05T14:16:27;22.70;53.20
42683;DHT22;28293;50.930;3.464;2023-06-05T14:18:52;22.60;53.80
42683;DHT22;28293;50.930;3.464;2023-06-05T14:21:18;22.80;54.00
42683;DHT22;28293;50.930;3.464;2023-06-05T14:23:44;22.70;53.80
42683;DHT22;28293;50.930;3.464;2023-06-05T14:26:10;22.70;53.90
42683;DHT22;28293;50.930;3.464;2023-06-05T14:28:36;22.60;53.50
42683;DHT22;28293;50.930;3.464;2023-06-05T14:31:02;22.60;53.70
42683;DHT22;28293;50.930;3.464;2023-06-05T14:33:28;22.60;53.70
42683;DHT22;28293;50.930;3.464;2023-06-05T14:35:54;22.60;54.20
42683;DHT22;28293;50.930;3.464;2023-06-05T14:38:20;22.60;53.90
42683;DHT22;28293;50.930;3.464;2023-06-05T14:40:45;22.70;52.80
42683;DHT22;28293;50.930;3.464;2023-06-05T14:43:15;22.70;53.30
42683;DHT22;28293;50.930;3.464;2023-06-05T14:45:41;22.50;53.20
42683;DHT22;28293;50.930;3.464;2023-06-05T14:48:08;22.50;53.90
42683;DHT22;28293;50.930;3.464;2023-06-05T14:50:36;22.30;54.10
42683;DHT22;28293;50.930;3.464;2023-06-05T14:53:01;22.60;53.40
42683;DHT22;28293;50.930;3.464;2023-06-05T14:55:27;22.50;53.00
42683;DHT22;28293;50.930;3.464;2023-06-05T14:57:53;22.60;53.20
42683;DHT22;28293;50.930;3.464;2023-06-05T15:00:18;22.90;53.30
42683;DHT22;28293;50.930;3.464;2023-06-05T15:02:45;23.00;52.40
42683;DHT22;28293;50.930;3.464;2023-06-05T15:05:10;22.60;52.60
42683;DHT22;28293;50.930;3.464;2023-06-05T15:07:40;22.70;53.20
42683;DHT22;28293;50.930;3.464;2023-06-05T15:10:07;22.60;53.00
42683;DHT22;28293;50.930;3.464;2023-06-05T15:12:34;22.60;53.60
42683;DHT22;28293;50.930;3.464;2023-06-05T15:15:00;22.60;54.10
42683;DHT22;28293;50.930;3.464;2023-06-05T15:17:26;22.30;55.10
42683;DHT22;28293;50.930;3.464;2023-06-05T15:19:51;22.20;54.80
42683;DHT22;28293;50.930;3.464;2023-06-05T15:22:17;22.00;55.60
42683;DHT22;28293;50.930;3.464;2023-06-05T15:24:43;21.90;55.70
42683;DHT22;28293;50.930;3.464;2023-06-05T15:27:08;21.80;55.80
42683;DHT22;28293;50.930;3.464;2023-06-05T15:29:36;21.90;56.00
42683;DHT22;28293;50.930;3.464;2023-06-05T15:32:02;21.90;55.30
42683;DHT22;28293;50.930;3.464;2023-06-05T15:34:27;21.60;56.30
42683;DHT22;28293;50.930;3.464;2023-06-05T15:36:53;21.90;56.20
42683;DHT22;28293;50.930;3.464;2023-06-05T15:39:18;21.80;55.60
42683;DHT22;28293;50.930;3.464;2023-06-05T15:41:44;21.70;56.00
42683;DHT22;28293;50.930;3.464;2023-06-05T15:44:14;21.90;55.70
42683;DHT22;28293;50.930;3.464;2023-06-05T15:46:39;21.70;55.70
42683;DHT22;28293;50.930;3.464;2023-06-05T15:49:05;21.70;55.90
42683;DHT22;28293;50.930;3.464;2023-06-05T15:51:31;21.70;55.40
42683;DHT22;28293;50.930;3.464;2023-06-05T15:53:56;21.50;56.40
42683;DHT22;28293;50.930;3.464;2023-06-05T15:56:24;21.70;56.40
42683;DHT22;28293;50.930;3.464;2023-06-05T15:58:51;21.50;56.40
42683;DHT22;28293;50.930;3.464;2023-06-05T16:01:16;21.70;56.50
42683;DHT22;28293;50.930;3.464;2023-06-05T16:03:42;21.70;56.60
42683;DHT22;28293;50.930;3.464;2023-06-05T16:06:08;21.60;56.10